createdAt,value
2019-02-23T00:01:12.730Z,8.02
2019-02-23T00:03:40.692Z,8.05
2019-02-23T00:06:07.367Z,7.74
2019-02-23T00:08:34.015Z,7.58
2019-02-23T00:11:00.639Z,7.49
2019-02-23T00:13:27.478Z,7.34
2019-02-23T00:15:54.041Z,7.00
2019-02-23T00:18:20.802Z,6.90
2019-02-23T00:20:47.517Z,7.01
2019-02-23T00:23:14.455Z,6.87
2019-02-23T00:25:41.986Z,6.77
2019-02-23T00:28:08.596Z,6.46
2019-02-23T00:30:35.292Z,6.53
2019-02-23T00:33:01.991Z,6.49
2019-02-23T00:35:28.730Z,6.50
2019-02-23T00:37:55.331Z,6.66
2019-02-23T00:40:21.934Z,6.62
2019-02-23T00:42:48.817Z,6.45
2019-02-23T00:45:15.484Z,6.24
2019-02-23T00:47:42.408Z,6.16
2019-02-23T00:50:09.308Z,6.18
2019-02-23T00:52:36.062Z,6.16
2019-02-23T00:55:03.094Z,6.24
2019-02-23T00:57:30.075Z,6.33
2019-02-23T00:59:57.109Z,6.36
2019-02-23T01:02:23.759Z,6.31
2019-02-23T01:04:50.801Z,6.41
2019-02-23T01:07:17.799Z,6.50
2019-02-23T01:09:44.420Z,6.55
2019-02-23T01:12:12.327Z,6.55
2019-02-23T01:14:39.617Z,6.45
2019-02-23T01:17:06.236Z,6.37
2019-02-23T01:19:34.245Z,6.56
2019-02-23T01:22:02.055Z,6.69
2019-02-23T01:24:29.780Z,6.72
2019-02-23T01:26:56.520Z,6.88
2019-02-23T01:29:23.422Z,6.87
2019-02-23T01:31:50.232Z,6.88
2019-02-23T01:34:16.900Z,6.77
2019-02-23T01:36:43.865Z,6.65
2019-02-23T01:39:12.080Z,6.57
2019-02-23T01:41:38.818Z,6.50
2019-02-23T01:44:05.493Z,6.49
2019-02-23T01:46:33.205Z,6.64
2019-02-23T01:48:59.935Z,6.55
2019-02-23T01:51:26.595Z,6.62
2019-02-23T01:53:53.287Z,6.67
2019-02-23T01:56:21.036Z,6.61
2019-02-23T01:58:47.682Z,6.58
2019-02-23T02:01:14.460Z,6.50
2019-02-23T02:03:42.923Z,6.08
2019-02-23T02:06:09.678Z,5.71
2019-02-23T02:08:36.599Z,5.68
2019-02-23T02:11:04.282Z,5.95
2019-02-23T02:13:31.921Z,6.20
2019-02-23T02:15:58.862Z,6.35
2019-02-23T02:18:25.522Z,6.56
2019-02-23T02:20:52.216Z,6.55
2019-02-23T02:23:19.054Z,6.68
2019-02-23T02:25:45.692Z,6.43
2019-02-23T02:28:12.331Z,6.55
2019-02-23T02:30:39.298Z,6.40
2019-02-23T02:33:05.876Z,6.41
2019-02-23T02:35:33.290Z,6.45
2019-02-23T02:37:59.960Z,6.17
2019-02-23T02:40:26.649Z,5.97
2019-02-23T02:42:53.324Z,5.71
2019-02-23T02:45:19.916Z,5.77
2019-02-23T02:50:24.294Z,5.72
2019-02-23T02:52:44.363Z,5.71
2019-02-23T02:55:11.105Z,5.73
2019-02-23T02:57:37.808Z,5.75
2019-02-23T03:00:04.457Z,5.57
2019-02-23T03:02:31.735Z,5.35
2019-02-23T03:04:58.810Z,5.17
2019-02-23T03:07:25.474Z,5.06
2019-02-23T03:09:52.610Z,5.09
2019-02-23T03:12:19.628Z,5.20
2019-02-23T03:14:46.487Z,5.21
2019-02-23T03:17:14.850Z,5.21
2019-02-23T03:19:41.558Z,5.16
2019-02-23T03:22:08.448Z,4.82
2019-02-23T03:24:35.179Z,4.78
2019-02-23T03:27:01.774Z,4.92
2019-02-23T03:29:28.536Z,4.89
2019-02-23T03:31:55.489Z,4.77
2019-02-23T03:34:22.292Z,4.50
2019-02-23T03:36:48.973Z,4.15
2019-02-23T03:39:15.656Z,4.27
2019-02-23T03:41:42.554Z,4.29
2019-02-23T03:44:09.171Z,4.50
2019-02-23T03:46:36.244Z,4.45
2019-02-23T03:49:03.007Z,4.39
2019-02-23T03:51:29.882Z,4.36
2019-02-23T03:53:56.578Z,4.40
2019-02-23T03:56:23.208Z,4.20
2019-02-23T03:58:50.360Z,4.07
2019-02-23T04:01:16.989Z,3.98
2019-02-23T04:03:45.602Z,3.89
2019-02-23T04:06:12.207Z,3.91
2019-02-23T04:08:39.194Z,4.08
2019-02-23T04:11:06.221Z,4.05
2019-02-23T04:13:32.799Z,3.94
2019-02-23T04:15:59.467Z,3.93
2019-02-23T04:18:26.269Z,3.81
2019-02-23T04:21:01.142Z,3.73
2019-02-23T04:23:21.635Z,3.84
2019-02-23T04:25:49.352Z,3.94
2019-02-23T04:28:16.503Z,3.96
2019-02-23T04:30:43.597Z,3.90
2019-02-23T04:33:10.532Z,3.64
2019-02-23T04:35:37.239Z,3.44
2019-02-23T04:38:03.967Z,3.32
2019-02-23T04:40:30.635Z,3.30
2019-02-23T04:42:57.506Z,3.52
2019-02-23T04:45:24.246Z,3.56
2019-02-23T04:47:50.905Z,3.53
2019-02-23T04:50:17.793Z,3.50
2019-02-23T04:52:46.199Z,3.60
2019-02-23T04:55:12.848Z,3.61
2019-02-23T04:57:39.470Z,3.70
2019-02-23T05:00:08.668Z,3.48
2019-02-23T05:02:35.294Z,3.51
2019-02-23T05:05:02.061Z,3.50
2019-02-23T05:07:28.697Z,3.83
2019-02-23T05:09:55.425Z,3.67
2019-02-23T05:12:22.119Z,3.58
2019-02-23T05:14:48.815Z,3.34
2019-02-23T05:17:16.660Z,3.21
2019-02-23T05:19:43.377Z,3.34
2019-02-23T05:22:10.277Z,3.46
2019-02-23T05:24:36.979Z,3.34
2019-02-23T05:27:03.948Z,3.23
2019-02-23T05:29:30.721Z,3.24
2019-02-23T05:31:57.604Z,3.11
2019-02-23T05:34:24.418Z,3.11
2019-02-23T05:36:51.046Z,3.26
2019-02-23T05:39:17.940Z,3.32
2019-02-23T05:41:44.658Z,3.33
2019-02-23T05:44:11.553Z,3.22
2019-02-23T05:46:38.572Z,2.93
2019-02-23T05:49:05.414Z,2.81
2019-02-23T05:51:38.796Z,2.80
2019-02-23T05:54:00.636Z,2.65
2019-02-23T05:56:27.413Z,2.80
2019-02-23T05:58:54.005Z,2.78
2019-02-23T06:01:20.817Z,3.02
2019-02-23T06:03:47.758Z,3.20
2019-02-23T06:06:14.416Z,3.23
2019-02-23T06:08:41.118Z,3.23
2019-02-23T06:11:08.070Z,3.21
2019-02-23T06:13:35.020Z,3.08
2019-02-23T06:16:03.553Z,3.00
2019-02-23T06:18:30.451Z,3.20
2019-02-23T06:20:57.158Z,3.02
2019-02-23T06:23:24.244Z,3.28
2019-02-23T06:25:51.281Z,3.28
2019-02-23T06:28:18.191Z,3.17
2019-02-23T06:30:45.169Z,2.98
2019-02-23T06:33:11.758Z,3.16
2019-02-23T06:35:38.487Z,3.13
2019-02-23T06:38:05.382Z,3.30
2019-02-23T06:40:32.236Z,3.21
2019-02-23T06:42:58.972Z,3.33
2019-02-23T06:45:25.634Z,3.37
2019-02-23T06:47:53.688Z,3.33
2019-02-23T06:50:20.614Z,3.63
2019-02-23T06:52:48.022Z,3.72
2019-02-23T06:55:14.752Z,3.91
2019-02-23T06:57:41.687Z,3.95
2019-02-23T07:00:09.474Z,4.14
2019-02-23T07:02:36.090Z,4.18
2019-02-23T07:05:06.907Z,4.11
2019-02-23T07:07:33.879Z,4.35
2019-02-23T07:10:00.791Z,4.41
2019-02-23T07:12:27.405Z,4.69
2019-02-23T07:14:54.015Z,4.95
2019-02-23T07:17:21.013Z,5.12
2019-02-23T07:19:48.332Z,5.27
2019-02-23T07:22:15.970Z,5.44
2019-02-23T07:24:42.702Z,5.46
2019-02-23T07:27:09.386Z,5.34
2019-02-23T07:29:36.200Z,5.15
2019-02-23T07:32:03.134Z,5.17
2019-02-23T07:34:29.742Z,5.36
2019-02-23T07:36:56.400Z,5.65
2019-02-23T07:39:23.303Z,5.88
2019-02-23T07:41:50.048Z,5.77
2019-02-23T07:44:18.275Z,5.62
2019-02-23T07:46:45.020Z,5.78
2019-02-23T07:49:11.718Z,5.52
2019-02-23T07:51:38.597Z,5.62
2019-02-23T07:54:07.029Z,6.02
2019-02-23T07:56:35.156Z,6.11
2019-02-23T07:59:02.145Z,6.27
2019-02-23T08:01:28.893Z,6.34
2019-02-23T08:03:55.787Z,6.27
2019-02-23T08:06:22.698Z,6.51
2019-02-23T08:08:49.323Z,6.82
2019-02-23T08:11:16.057Z,7.05
2019-02-23T08:13:42.901Z,7.19
2019-02-23T08:16:09.899Z,7.03
2019-02-23T08:18:36.795Z,7.13
2019-02-23T08:21:03.444Z,7.35
2019-02-23T08:23:30.102Z,7.65
2019-02-23T08:25:56.984Z,7.47
2019-02-23T08:28:23.790Z,7.32
2019-02-23T08:30:50.436Z,7.42
2019-02-23T08:33:17.413Z,7.77
2019-02-23T08:35:44.245Z,7.42
2019-02-23T08:38:11.141Z,7.63
2019-02-23T08:40:37.905Z,8.06
2019-02-23T08:43:04.603Z,8.23
2019-02-23T08:45:31.291Z,8.03
2019-02-23T08:47:57.927Z,7.70
2019-02-23T08:50:24.519Z,7.61
2019-02-23T08:52:51.167Z,7.64
2019-02-23T08:55:17.850Z,7.75
2019-02-23T08:57:44.806Z,7.62
2019-02-23T09:00:11.705Z,7.82
2019-02-23T09:02:38.826Z,8.16
2019-02-23T09:05:05.776Z,8.33
2019-02-23T09:07:32.862Z,8.43
2019-02-23T09:09:59.764Z,8.36
2019-02-23T09:12:26.502Z,8.50
2019-02-23T09:14:53.161Z,8.47
2019-02-23T09:17:20.395Z,8.51
2019-02-23T09:19:47.007Z,8.49
2019-02-23T09:22:29.914Z,8.51
2019-02-23T09:24:56.615Z,8.54
2019-02-23T09:27:23.471Z,8.43
2019-02-23T09:29:50.650Z,8.45
2019-02-23T09:32:17.323Z,8.35
2019-02-23T09:34:44.135Z,8.24
2019-02-23T09:37:11.048Z,8.33
2019-02-23T09:39:37.687Z,8.69
2019-02-23T09:42:07.362Z,8.54
2019-02-23T09:44:33.237Z,8.52
2019-02-23T09:47:00.133Z,8.72
2019-02-23T09:49:26.791Z,8.99
2019-02-23T09:51:53.542Z,9.15
2019-02-23T09:54:20.806Z,8.79
2019-02-23T09:56:47.455Z,9.02
2019-02-23T09:59:14.365Z,8.95
2019-02-23T10:01:41.066Z,9.21
2019-02-23T10:04:07.898Z,9.35
2019-02-23T10:06:34.531Z,9.09
2019-02-23T10:09:01.173Z,9.48
2019-02-23T10:11:27.828Z,9.77
2019-02-23T10:13:54.662Z,10.22
2019-02-23T10:16:21.279Z,10.33
2019-02-23T10:18:48.071Z,10.54
2019-02-23T10:21:14.801Z,10.70
2019-02-23T10:23:41.673Z,10.94
2019-02-23T10:26:08.428Z,10.68
2019-02-23T10:28:35.152Z,10.17
2019-02-23T10:31:01.881Z,10.22
2019-02-23T10:33:28.590Z,10.32
2019-02-23T10:35:55.252Z,10.25
2019-02-23T10:38:22.007Z,10.48
2019-02-23T10:40:48.990Z,10.93
2019-02-23T10:43:15.730Z,11.49
2019-02-23T10:45:42.360Z,11.58
2019-02-23T10:48:12.863Z,10.76
2019-02-23T10:50:43.721Z,10.99
2019-02-23T10:53:10.321Z,10.85
2019-02-23T10:55:40.770Z,10.28
2019-02-23T10:58:09.266Z,10.56
2019-02-23T11:00:37.178Z,10.49
2019-02-23T11:03:03.839Z,10.32
2019-02-23T11:05:30.749Z,10.48
2019-02-23T11:07:57.494Z,10.34
2019-02-23T11:10:24.192Z,10.20
2019-02-23T11:12:52.023Z,10.75
2019-02-23T11:15:18.683Z,11.27
2019-02-23T11:17:45.586Z,11.94
2019-02-23T11:20:12.243Z,11.98
2019-02-23T11:22:39.293Z,11.81
2019-02-23T11:25:06.306Z,12.06
2019-02-23T11:27:33.219Z,12.50
2019-02-23T11:30:00.021Z,12.60
2019-02-23T11:32:27.199Z,12.49
2019-02-23T11:34:53.917Z,12.42
2019-02-23T11:37:22.219Z,12.39
2019-02-23T11:39:48.964Z,12.44
2019-02-23T11:42:15.889Z,12.41
2019-02-23T11:44:42.562Z,12.49
2019-02-23T11:47:09.207Z,12.34
2019-02-23T11:49:36.034Z,12.17
2019-02-23T11:52:02.635Z,12.41
2019-02-23T11:54:29.434Z,12.42
2019-02-23T11:56:56.212Z,12.17
2019-02-23T11:59:23.163Z,12.12
2019-02-23T12:01:49.934Z,12.47
2019-02-23T12:04:16.542Z,12.57
2019-02-23T12:06:43.310Z,12.51
2019-02-23T12:09:10.285Z,12.40
2019-02-23T12:11:37.154Z,12.50
2019-02-23T12:14:03.908Z,12.34
2019-02-23T12:16:30.525Z,12.61
2019-02-23T12:18:57.349Z,12.76
2019-02-23T12:21:24.010Z,12.43
2019-02-23T12:23:50.668Z,12.71
2019-02-23T12:26:17.526Z,12.63
2019-02-23T12:28:44.664Z,12.54
2019-02-23T12:31:11.955Z,12.88
2019-02-23T12:33:38.625Z,12.76
2019-02-23T12:36:05.532Z,13.03
2019-02-23T12:38:32.197Z,12.70
2019-02-23T12:40:58.799Z,12.23
2019-02-23T12:43:25.789Z,11.77
2019-02-23T12:45:53.213Z,10.83
2019-02-23T12:48:19.837Z,10.12
2019-02-23T12:50:46.713Z,9.81
2019-02-23T12:53:13.492Z,9.98
2019-02-23T12:55:40.089Z,10.35
2019-02-23T12:58:06.816Z,10.15
2019-02-23T13:00:33.515Z,9.86
2019-02-23T13:03:00.127Z,10.46
2019-02-23T13:05:27.023Z,11.10
2019-02-23T13:07:55.686Z,11.88
2019-02-23T13:10:23.466Z,11.76
2019-02-23T13:12:50.040Z,11.41
2019-02-23T13:15:16.731Z,11.81
2019-02-23T13:17:43.347Z,11.28
2019-02-23T13:20:10.163Z,10.90
2019-02-23T13:22:36.799Z,11.01
2019-02-23T13:25:03.483Z,11.24
2019-02-23T13:27:30.218Z,11.40
2019-02-23T13:29:56.865Z,11.87
2019-02-23T13:32:23.791Z,12.20
2019-02-23T13:34:50.422Z,11.29
2019-02-23T13:37:17.124Z,10.78
2019-02-23T13:39:43.804Z,10.86
2019-02-23T13:42:10.631Z,10.75
2019-02-23T13:44:37.627Z,11.04
2019-02-23T13:47:04.592Z,10.64
2019-02-23T13:49:31.472Z,9.73
2019-02-23T13:51:58.711Z,9.83
2019-02-23T13:54:25.927Z,9.77
2019-02-23T13:56:54.079Z,9.77
2019-02-23T13:59:21.319Z,9.88
2019-02-23T14:01:47.922Z,10.16
2019-02-23T14:04:14.731Z,10.31
2019-02-23T14:06:41.465Z,10.36
2019-02-23T14:09:08.094Z,10.26
2019-02-23T14:11:35.024Z,10.45
2019-02-23T14:14:01.915Z,10.36
2019-02-23T14:16:28.860Z,10.62
2019-02-23T14:18:56.014Z,10.82
2019-02-23T14:21:24.539Z,11.03
2019-02-23T14:23:51.174Z,11.25
2019-02-23T14:26:18.059Z,11.53
2019-02-23T14:28:44.974Z,11.27
2019-02-23T14:31:11.561Z,11.47
2019-02-23T14:33:38.171Z,11.56
2019-02-23T14:36:05.178Z,11.31
2019-02-23T14:38:32.116Z,10.78
2019-02-23T14:40:59.814Z,10.08
2019-02-23T14:43:26.742Z,10.00
2019-02-23T14:45:54.593Z,9.92
2019-02-23T14:48:23.848Z,9.84
2019-02-23T14:50:51.726Z,9.62
2019-02-23T14:53:18.774Z,9.19
2019-02-23T14:55:47.928Z,9.33
2019-02-23T14:58:16.554Z,9.59
2019-02-23T15:00:44.567Z,9.74
2019-02-23T15:03:15.951Z,10.06
2019-02-23T15:05:45.579Z,10.17
2019-02-23T15:08:15.788Z,10.05
2019-02-23T15:13:29.085Z,10.53
2019-02-23T15:15:58.756Z,10.19
2019-02-23T15:18:27.118Z,10.01
2019-02-23T15:20:57.399Z,9.65
2019-02-23T15:23:25.334Z,9.40
2019-02-23T15:25:52.298Z,9.35
2019-02-23T15:28:35.660Z,9.50
2019-02-23T15:30:53.141Z,9.51
2019-02-23T15:33:21.315Z,9.37
2019-02-23T15:35:48.147Z,9.37
2019-02-23T15:38:15.123Z,9.41
2019-02-23T15:40:43.014Z,9.34
2019-02-23T15:43:23.660Z,9.22
2019-02-23T15:48:40.130Z,9.11
2019-02-23T15:51:07.684Z,8.84
2019-02-23T15:53:36.792Z,8.72
2019-02-23T15:56:04.250Z,8.53
2019-02-23T15:58:38.200Z,8.63
2019-02-23T16:01:07.558Z,8.66
2019-02-23T16:06:17.325Z,8.32
2019-02-23T16:08:44.245Z,8.09
2019-02-23T16:11:10.943Z,8.01
2019-02-23T16:13:37.587Z,8.00
2019-02-23T16:16:04.430Z,7.78
2019-02-23T16:18:31.472Z,7.76
2019-02-23T16:20:58.371Z,7.80
2019-02-23T16:23:34.901Z,8.03
2019-02-23T16:25:55.869Z,8.15
2019-02-23T16:28:22.522Z,8.20
2019-02-23T16:30:49.237Z,8.12
2019-02-23T16:33:15.916Z,8.17
2019-02-23T16:35:42.658Z,7.97
2019-02-23T16:38:09.522Z,7.69
2019-02-23T16:40:36.215Z,7.61
2019-02-23T16:43:02.884Z,7.52
2019-02-23T16:45:29.780Z,7.37
2019-02-23T16:47:57.056Z,7.37
2019-02-23T16:50:23.942Z,7.19
2019-02-23T16:52:50.967Z,7.28
2019-02-23T16:55:18.188Z,7.27
2019-02-23T16:57:45.033Z,7.10
2019-02-23T17:00:30.019Z,7.00
2019-02-23T17:02:57.207Z,7.11
2019-02-23T17:05:24.057Z,7.05
2019-02-23T17:07:50.646Z,6.94
2019-02-23T17:10:17.425Z,6.95
2019-02-23T17:12:44.173Z,6.91
2019-02-23T17:15:11.129Z,7.03
2019-02-23T17:17:37.774Z,7.03
2019-02-23T17:20:04.595Z,6.90
2019-02-23T17:22:32.023Z,6.91
2019-02-23T17:24:58.856Z,6.79
2019-02-23T17:27:35.782Z,6.70
2019-02-23T17:29:54.092Z,6.63
2019-02-23T17:32:21.048Z,6.62
2019-02-23T17:34:47.718Z,6.60
2019-02-23T17:37:14.451Z,6.54
2019-02-23T17:39:41.150Z,6.52
2019-02-23T17:42:09.572Z,6.57
2019-02-23T17:44:36.456Z,6.65
2019-02-23T17:47:03.761Z,6.63
2019-02-23T17:49:30.419Z,6.61
2019-02-23T17:51:57.228Z,6.48
2019-02-23T17:54:23.946Z,6.37
2019-02-23T17:56:50.659Z,6.31
2019-02-23T17:59:17.314Z,6.29
2019-02-23T18:01:44.061Z,6.36
2019-02-23T18:04:10.755Z,6.46
2019-02-23T18:06:37.588Z,6.49
2019-02-23T18:09:05.237Z,6.45
2019-02-23T18:11:31.885Z,6.37
2019-02-23T18:13:58.547Z,6.28
2019-02-23T18:16:25.177Z,6.30
2019-02-23T18:18:51.905Z,6.25
2019-02-23T18:21:18.663Z,6.18
2019-02-23T18:23:45.745Z,6.00
2019-02-23T18:26:18.990Z,5.95
2019-02-23T18:28:41.021Z,5.87
2019-02-23T18:31:07.897Z,5.97
2019-02-23T18:33:34.898Z,6.08
2019-02-23T18:36:01.826Z,5.94
2019-02-23T18:38:28.756Z,5.77
2019-02-23T18:40:55.411Z,5.68
2019-02-23T18:43:22.365Z,5.63
2019-02-23T18:45:49.010Z,5.60
2019-02-23T18:48:15.846Z,5.66
2019-02-23T18:50:42.452Z,5.61
2019-02-23T18:53:14.151Z,5.56
2019-02-23T18:55:41.418Z,5.40
2019-02-23T18:58:08.270Z,5.34
2019-02-23T19:00:35.010Z,5.29
2019-02-23T19:03:01.939Z,5.22
2019-02-23T19:05:28.637Z,5.19
2019-02-23T19:07:55.372Z,5.03
2019-02-23T19:10:22.271Z,4.94
2019-02-23T19:12:49.222Z,4.92
2019-02-23T19:15:16.612Z,5.25
2019-02-23T19:17:43.272Z,5.20
2019-02-23T19:20:10.692Z,5.11
2019-02-23T19:22:37.384Z,5.06
2019-02-23T19:25:04.334Z,5.08
2019-02-23T19:27:30.883Z,5.13
2019-02-23T19:29:57.547Z,5.07
2019-02-23T19:32:24.499Z,4.99
2019-02-23T19:34:51.397Z,5.05
2019-02-23T19:37:18.089Z,5.04
2019-02-23T19:39:44.880Z,4.98
2019-02-23T19:42:11.484Z,4.88
2019-02-23T19:44:39.744Z,4.75
2019-02-23T19:47:17.948Z,4.73
2019-02-23T19:49:46.531Z,4.77
2019-02-23T19:52:14.939Z,4.74
2019-02-23T19:54:59.441Z,4.76
2019-02-23T19:57:27.893Z,4.72
2019-02-23T20:00:05.612Z,4.60
2019-02-23T20:02:32.931Z,4.58
2019-02-23T20:04:59.738Z,4.53
2019-02-23T20:07:26.358Z,4.38
2019-02-23T20:09:53.003Z,4.27
2019-02-23T20:12:19.762Z,4.37
2019-02-23T20:14:46.444Z,4.40
2019-02-23T20:17:13.039Z,4.19
2019-02-23T20:19:41.186Z,4.07
2019-02-23T20:22:07.940Z,4.02
2019-02-23T20:24:36.781Z,4.00
2019-02-23T20:27:03.454Z,4.12
2019-02-23T20:29:30.424Z,4.27
2019-02-23T20:31:57.062Z,4.15
2019-02-23T20:34:23.980Z,4.08
2019-02-23T20:36:50.722Z,4.09
2019-02-23T20:39:17.387Z,3.98
2019-02-23T20:41:44.098Z,3.84
2019-02-23T20:44:11.757Z,3.77
2019-02-23T20:46:38.574Z,3.80
2019-02-23T20:49:05.256Z,3.94
2019-02-23T20:51:32.178Z,3.91
2019-02-23T20:53:58.820Z,3.83
2019-02-23T20:56:25.509Z,3.71
2019-02-23T20:58:52.376Z,3.64
2019-02-23T21:01:19.649Z,3.71
2019-02-23T21:03:46.593Z,3.73
2019-02-23T21:06:13.707Z,3.80
2019-02-23T21:08:42.340Z,3.81
2019-02-23T21:11:09.107Z,3.72
2019-02-23T21:13:35.775Z,3.59
2019-02-23T21:16:02.583Z,3.59
2019-02-23T21:18:29.692Z,3.56
2019-02-23T21:20:56.574Z,3.65
2019-02-23T21:23:23.201Z,3.70
2019-02-23T21:25:49.891Z,3.80
2019-02-23T21:28:16.590Z,3.82
2019-02-23T21:30:43.252Z,3.68
2019-02-23T21:33:09.840Z,3.57
2019-02-23T21:35:37.034Z,3.44
2019-02-23T21:38:03.904Z,3.33
2019-02-23T21:40:30.815Z,3.13
2019-02-23T21:42:58.102Z,3.21
2019-02-23T21:45:24.826Z,3.27
2019-02-23T21:47:51.746Z,3.26
2019-02-23T21:50:18.362Z,3.33
2019-02-23T21:52:47.393Z,3.37
2019-02-23T21:55:13.984Z,3.34
2019-02-23T21:57:42.453Z,3.17
2019-02-23T22:00:09.245Z,3.14
2019-02-23T22:02:36.026Z,3.01
2019-02-23T22:05:11.634Z,2.86
2019-02-23T22:07:31.349Z,2.82
2019-02-23T22:09:58.102Z,2.90
2019-02-23T22:12:25.053Z,2.81
2019-02-23T22:14:52.372Z,2.76
2019-02-23T22:17:19.258Z,2.76
2019-02-23T22:19:46.239Z,2.79
2019-02-23T22:22:13.189Z,2.80
2019-02-23T22:24:40.165Z,2.82
2019-02-23T22:27:07.077Z,2.91
2019-02-23T22:29:33.771Z,2.79
2019-02-23T22:32:00.421Z,2.71
2019-02-23T22:34:27.388Z,2.63
2019-02-23T22:36:54.611Z,2.45
2019-02-23T22:39:21.486Z,2.43
2019-02-23T22:41:49.865Z,2.66
2019-02-23T22:44:16.688Z,2.69
2019-02-23T22:46:43.458Z,2.64
2019-02-23T22:49:10.559Z,2.40
2019-02-23T22:51:37.875Z,2.21
2019-02-23T22:54:04.702Z,2.15
2019-02-23T22:56:31.613Z,2.17
2019-02-23T22:58:58.837Z,2.23
2019-02-23T23:01:25.680Z,2.06
2019-02-23T23:03:53.063Z,2.15
2019-02-23T23:06:19.792Z,2.26
2019-02-23T23:08:46.669Z,2.09
2019-02-23T23:11:13.872Z,2.03
2019-02-23T23:13:40.807Z,1.99
2019-02-23T23:16:07.937Z,2.11
2019-02-23T23:18:34.783Z,2.13
2019-02-23T23:21:01.734Z,2.18
2019-02-23T23:23:28.705Z,2.09
2019-02-23T23:25:55.901Z,1.94
2019-02-23T23:28:23.305Z,2.02
2019-02-23T23:30:49.963Z,2.06
2019-02-23T23:33:16.818Z,2.06
2019-02-23T23:35:43.911Z,1.72
2019-02-23T23:38:10.807Z,1.69
2019-02-23T23:40:37.686Z,1.81
2019-02-23T23:43:04.368Z,1.80
2019-02-23T23:45:31.052Z,1.63
2019-02-23T23:47:58.076Z,1.62
2019-02-23T23:50:25.078Z,1.60
2019-02-23T23:52:52.108Z,1.68
2019-02-23T23:55:20.951Z,1.72
2019-02-23T23:57:47.623Z,1.62
